sensor_id;sensor_type;location;lat;lon;timestamp;P1;durP1;ratioP1;P2;durP2;ratioP2
5912;SDS011;2982;42.684;23.356;2023-03-01T00:01:11;2.90;;;2.70;;
5912;SDS011;2982;42.684;23.356;2023-03-01T00:03:38;3.00;;;2.80;;
5912;SDS011;2982;42.684;23.356;2023-03-01T00:06:03;3.23;;;3.00;;
5912;SDS011;2982;42.684;23.356;2023-03-01T00:08:29;3.30;;;3.10;;
5912;SDS011;2982;42.684;23.356;2023-03-01T00:13:45;3.23;;;2.93;;
5912;SDS011;2982;42.684;23.356;2023-03-01T00:16:14;3.40;;;3.20;;
5912;SDS011;2982;42.684;23.356;2023-03-01T00:18:41;3.93;;;3.50;;
5912;SDS011;2982;42.684;23.356;2023-03-01T00:21:07;3.07;;;2.87;;
5912;SDS011;2982;42.684;23.356;2023-03-01T00:23:36;2.63;;;2.43;;
5912;SDS011;2982;42.684;23.356;2023-03-01T00:26:01;2.40;;;2.30;;
5912;SDS011;2982;42.684;23.356;2023-03-01T00:28:27;3.83;;;1.97;;
5912;SDS011;2982;42.684;23.356;2023-03-01T00:30:52;2.03;;;1.93;;
5912;SDS011;2982;42.684;23.356;2023-03-01T00:33:17;2.77;;;2.57;;
5912;SDS011;2982;42.684;23.356;2023-03-01T00:35:43;2.30;;;2.10;;
5912;SDS011;2982;42.684;23.356;2023-03-01T00:38:09;2.60;;;2.40;;
5912;SDS011;2982;42.684;23.356;2023-03-01T00:40:34;3.20;;;2.43;;
5912;SDS011;2982;42.684;23.356;2023-03-01T00:43:00;2.80;;;2.60;;
5912;SDS011;2982;42.684;23.356;2023-03-01T00:45:27;2.70;;;2.50;;
5912;SDS011;2982;42.684;23.356;2023-03-01T00:47:52;2.03;;;1.93;;
5912;SDS011;2982;42.684;23.356;2023-03-01T00:50:18;3.00;;;2.80;;
5912;SDS011;2982;42.684;23.356;2023-03-01T00:52:44;2.90;;;2.70;;
5912;SDS011;2982;42.684;23.356;2023-03-01T00:55:10;2.80;;;2.60;;
5912;SDS011;2982;42.684;23.356;2023-03-01T00:57:35;2.97;;;2.43;;
5912;SDS011;2982;42.684;23.356;2023-03-01T01:00:01;2.27;;;2.10;;
5912;SDS011;2982;42.684;23.356;2023-03-01T01:02:27;2.67;;;2.47;;
5912;SDS011;2982;42.684;23.356;2023-03-01T01:04:52;2.63;;;2.43;;
5912;SDS011;2982;42.684;23.356;2023-03-01T01:07:18;2.40;;;2.20;;
5912;SDS011;2982;42.684;23.356;2023-03-01T01:09:43;2.70;;;2.50;;
5912;SDS011;2982;42.684;23.356;2023-03-01T01:12:08;2.07;;;1.93;;
5912;SDS011;2982;42.684;23.356;2023-03-01T01:14:34;1.77;;;1.67;;
5912;SDS011;2982;42.684;23.356;2023-03-01T01:17:00;2.30;;;2.07;;
5912;SDS011;2982;42.684;23.356;2023-03-01T01:19:25;1.87;;;1.77;;
5912;SDS011;2982;42.684;23.356;2023-03-01T01:21:51;1.97;;;1.87;;
5912;SDS011;2982;42.684;23.356;2023-03-01T01:24:17;2.27;;;2.17;;
5912;SDS011;2982;42.684;23.356;2023-03-01T01:26:43;2.10;;;1.97;;
5912;SDS011;2982;42.684;23.356;2023-03-01T01:29:08;2.43;;;2.30;;
5912;SDS011;2982;42.684;23.356;2023-03-01T01:31:34;1.80;;;1.70;;
5912;SDS011;2982;42.684;23.356;2023-03-01T01:34:02;1.80;;;1.70;;
5912;SDS011;2982;42.684;23.356;2023-03-01T01:36:29;1.60;;;1.50;;
5912;SDS011;2982;42.684;23.356;2023-03-01T01:38:55;1.67;;;1.57;;
5912;SDS011;2982;42.684;23.356;2023-03-01T01:41:20;1.80;;;1.70;;
5912;SDS011;2982;42.684;23.356;2023-03-01T01:43:48;1.20;;;1.20;;
5912;SDS011;2982;42.684;23.356;2023-03-01T01:46:33;1.50;;;1.40;;
5912;SDS011;2982;42.684;23.356;2023-03-01T01:51:54;1.70;;;1.60;;
5912;SDS011;2982;42.684;23.356;2023-03-01T01:57:32;1.57;;;1.40;;
5912;SDS011;2982;42.684;23.356;2023-03-01T02:00:05;1.33;;;1.23;;
5912;SDS011;2982;42.684;23.356;2023-03-01T02:02:35;1.23;;;1.17;;
5912;SDS011;2982;42.684;23.356;2023-03-01T02:05:03;1.50;;;1.40;;
5912;SDS011;2982;42.684;23.356;2023-03-01T02:07:34;1.90;;;1.40;;
5912;SDS011;2982;42.684;23.356;2023-03-01T02:10:00;1.33;;;1.23;;
5912;SDS011;2982;42.684;23.356;2023-03-01T02:12:26;1.20;;;1.10;;
5912;SDS011;2982;42.684;23.356;2023-03-01T02:14:52;1.00;;;1.00;;
5912;SDS011;2982;42.684;23.356;2023-03-01T02:17:17;1.60;;;1.27;;
5912;SDS011;2982;42.684;23.356;2023-03-01T02:19:53;1.10;;;1.10;;
5912;SDS011;2982;42.684;23.356;2023-03-01T02:22:24;3.23;;;1.43;;
5912;SDS011;2982;42.684;23.356;2023-03-01T02:24:58;1.80;;;1.70;;
5912;SDS011;2982;42.684;23.356;2023-03-01T02:27:40;2.40;;;1.87;;
5912;SDS011;2982;42.684;23.356;2023-03-01T02:30:13;1.20;;;1.20;;
5912;SDS011;2982;42.684;23.356;2023-03-01T02:32:41;1.33;;;1.30;;
5912;SDS011;2982;42.684;23.356;2023-03-01T02:35:08;1.77;;;1.67;;
5912;SDS011;2982;42.684;23.356;2023-03-01T02:37:36;2.00;;;1.90;;
5912;SDS011;2982;42.684;23.356;2023-03-01T02:40:04;2.93;;;2.17;;
5912;SDS011;2982;42.684;23.356;2023-03-01T02:42:33;2.10;;;2.00;;
5912;SDS011;2982;42.684;23.356;2023-03-01T02:45:05;1.80;;;1.70;;
5912;SDS011;2982;42.684;23.356;2023-03-01T02:47:30;1.83;;;1.73;;
5912;SDS011;2982;42.684;23.356;2023-03-01T02:49:55;1.20;;;1.20;;
5912;SDS011;2982;42.684;23.356;2023-03-01T02:57:43;2.30;;;1.30;;
5912;SDS011;2982;42.684;23.356;2023-03-01T03:00:14;1.43;;;1.33;;
5912;SDS011;2982;42.684;23.356;2023-03-01T03:02:43;1.80;;;1.40;;
5912;SDS011;2982;42.684;23.356;2023-03-01T03:05:10;1.20;;;1.20;;
5912;SDS011;2982;42.684;23.356;2023-03-01T03:07:38;1.13;;;1.13;;
5912;SDS011;2982;42.684;23.356;2023-03-01T03:10:07;1.63;;;1.53;;
5912;SDS011;2982;42.684;23.356;2023-03-01T03:12:34;1.90;;;1.80;;
5912;SDS011;2982;42.684;23.356;2023-03-01T03:14:59;1.80;;;1.70;;
5912;SDS011;2982;42.684;23.356;2023-03-01T03:17:24;2.20;;;2.10;;
5912;SDS011;2982;42.684;23.356;2023-03-01T03:19:50;2.20;;;2.10;;
5912;SDS011;2982;42.684;23.356;2023-03-01T03:22:15;2.30;;;2.20;;
5912;SDS011;2982;42.684;23.356;2023-03-01T03:24:40;2.33;;;2.23;;
5912;SDS011;2982;42.684;23.356;2023-03-01T03:27:06;2.93;;;1.63;;
5912;SDS011;2982;42.684;23.356;2023-03-01T03:29:32;1.87;;;1.77;;
5912;SDS011;2982;42.684;23.356;2023-03-01T03:31:57;1.60;;;1.50;;
5912;SDS011;2982;42.684;23.356;2023-03-01T03:34:23;1.67;;;1.50;;
5912;SDS011;2982;42.684;23.356;2023-03-01T03:36:52;1.70;;;1.60;;
5912;SDS011;2982;42.684;23.356;2023-03-01T03:39:18;1.97;;;1.87;;
5912;SDS011;2982;42.684;23.356;2023-03-01T03:41:43;2.13;;;2.03;;
5912;SDS011;2982;42.684;23.356;2023-03-01T03:44:09;2.50;;;2.30;;
5912;SDS011;2982;42.684;23.356;2023-03-01T03:46:34;2.37;;;2.27;;
5912;SDS011;2982;42.684;23.356;2023-03-01T03:48:59;2.57;;;2.37;;
5912;SDS011;2982;42.684;23.356;2023-03-01T03:51:24;2.00;;;1.90;;
5912;SDS011;2982;42.684;23.356;2023-03-01T03:53:50;2.33;;;2.17;;
5912;SDS011;2982;42.684;23.356;2023-03-01T03:56:15;2.37;;;2.20;;
5912;SDS011;2982;42.684;23.356;2023-03-01T03:58:40;2.30;;;2.20;;
5912;SDS011;2982;42.684;23.356;2023-03-01T04:01:06;2.30;;;2.20;;
5912;SDS011;2982;42.684;23.356;2023-03-01T04:03:31;1.90;;;1.80;;
5912;SDS011;2982;42.684;23.356;2023-03-01T04:05:58;3.30;;;2.30;;
5912;SDS011;2982;42.684;23.356;2023-03-01T04:08:24;2.03;;;1.93;;
5912;SDS011;2982;42.684;23.356;2023-03-01T04:10:51;2.37;;;2.20;;
5912;SDS011;2982;42.684;23.356;2023-03-01T04:13:19;2.57;;;2.37;;
5912;SDS011;2982;42.684;23.356;2023-03-01T04:15:47;3.20;;;3.00;;
5912;SDS011;2982;42.684;23.356;2023-03-01T04:18:14;2.20;;;2.10;;
5912;SDS011;2982;42.684;23.356;2023-03-01T04:20:41;2.70;;;2.50;;
5912;SDS011;2982;42.684;23.356;2023-03-01T04:23:10;2.33;;;2.20;;
5912;SDS011;2982;42.684;23.356;2023-03-01T04:28:14;2.10;;;2.00;;
5912;SDS011;2982;42.684;23.356;2023-03-01T04:30:40;2.17;;;2.07;;
5912;SDS011;2982;42.684;23.356;2023-03-01T04:33:06;1.47;;;1.33;;
5912;SDS011;2982;42.684;23.356;2023-03-01T04:35:36;2.57;;;2.47;;
5912;SDS011;2982;42.684;23.356;2023-03-01T04:38:02;1.90;;;1.80;;
5912;SDS011;2982;42.684;23.356;2023-03-01T04:40:28;2.03;;;1.83;;
5912;SDS011;2982;42.684;23.356;2023-03-01T04:42:53;2.20;;;2.00;;
5912;SDS011;2982;42.684;23.356;2023-03-01T04:45:19;2.50;;;1.93;;
5912;SDS011;2982;42.684;23.356;2023-03-01T04:47:45;2.10;;;2.00;;
5912;SDS011;2982;42.684;23.356;2023-03-01T04:50:11;2.00;;;1.90;;
5912;SDS011;2982;42.684;23.356;2023-03-01T04:52:40;2.50;;;2.40;;
5912;SDS011;2982;42.684;23.356;2023-03-01T04:55:06;2.23;;;2.10;;
5912;SDS011;2982;42.684;23.356;2023-03-01T04:57:32;2.17;;;2.07;;
5912;SDS011;2982;42.684;23.356;2023-03-01T04:59:58;2.53;;;2.33;;
5912;SDS011;2982;42.684;23.356;2023-03-01T05:02:23;2.73;;;2.53;;
5912;SDS011;2982;42.684;23.356;2023-03-01T05:04:49;2.40;;;2.30;;
5912;SDS011;2982;42.684;23.356;2023-03-01T05:07:14;2.60;;;2.40;;
5912;SDS011;2982;42.684;23.356;2023-03-01T05:09:40;2.60;;;2.43;;
5912;SDS011;2982;42.684;23.356;2023-03-01T05:12:05;2.70;;;2.50;;
5912;SDS011;2982;42.684;23.356;2023-03-01T05:14:30;3.33;;;3.03;;
5912;SDS011;2982;42.684;23.356;2023-03-01T05:16:55;2.37;;;2.27;;
5912;SDS011;2982;42.684;23.356;2023-03-01T05:19:21;3.27;;;2.97;;
5912;SDS011;2982;42.684;23.356;2023-03-01T05:21:46;2.90;;;2.70;;
5912;SDS011;2982;42.684;23.356;2023-03-01T05:24:11;3.03;;;2.83;;
5912;SDS011;2982;42.684;23.356;2023-03-01T05:26:37;3.47;;;3.27;;
5912;SDS011;2982;42.684;23.356;2023-03-01T05:29:02;3.63;;;3.33;;
5912;SDS011;2982;42.684;23.356;2023-03-01T05:31:27;3.00;;;2.80;;
5912;SDS011;2982;42.684;23.356;2023-03-01T05:33:53;3.43;;;3.07;;
5912;SDS011;2982;42.684;23.356;2023-03-01T05:36:18;2.90;;;2.70;;
5912;SDS011;2982;42.684;23.356;2023-03-01T05:38:44;3.33;;;3.07;;
5912;SDS011;2982;42.684;23.356;2023-03-01T05:41:13;4.80;;;4.23;;
5912;SDS011;2982;42.684;23.356;2023-03-01T05:43:39;3.90;;;3.43;;
5912;SDS011;2982;42.684;23.356;2023-03-01T05:46:05;3.27;;;3.00;;
5912;SDS011;2982;42.684;23.356;2023-03-01T05:48:30;3.70;;;3.40;;
5912;SDS011;2982;42.684;23.356;2023-03-01T05:50:58;4.03;;;3.33;;
5912;SDS011;2982;42.684;23.356;2023-03-01T05:53:24;3.50;;;3.20;;
5912;SDS011;2982;42.684;23.356;2023-03-01T05:55:49;3.30;;;3.10;;
5912;SDS011;2982;42.684;23.356;2023-03-01T05:58:16;3.73;;;3.40;;
5912;SDS011;2982;42.684;23.356;2023-03-01T06:00:44;3.70;;;3.47;;
5912;SDS011;2982;42.684;23.356;2023-03-01T06:03:14;3.50;;;3.20;;
5912;SDS011;2982;42.684;23.356;2023-03-01T06:05:41;3.70;;;3.40;;
5912;SDS011;2982;42.684;23.356;2023-03-01T06:08:07;3.40;;;3.10;;
5912;SDS011;2982;42.684;23.356;2023-03-01T06:10:32;3.33;;;3.13;;
5912;SDS011;2982;42.684;23.356;2023-03-01T06:12:57;3.60;;;3.30;;
5912;SDS011;2982;42.684;23.356;2023-03-01T06:15:23;3.73;;;3.43;;
5912;SDS011;2982;42.684;23.356;2023-03-01T06:17:49;4.90;;;3.57;;
5912;SDS011;2982;42.684;23.356;2023-03-01T06:20:16;3.60;;;3.33;;
5912;SDS011;2982;42.684;23.356;2023-03-01T06:22:44;4.10;;;3.70;;
5912;SDS011;2982;42.684;23.356;2023-03-01T06:25:10;5.23;;;4.63;;
5912;SDS011;2982;42.684;23.356;2023-03-01T06:27:37;4.97;;;3.53;;
5912;SDS011;2982;42.684;23.356;2023-03-01T06:30:03;3.17;;;2.97;;
5912;SDS011;2982;42.684;23.356;2023-03-01T06:32:29;3.53;;;3.23;;
5912;SDS011;2982;42.684;23.356;2023-03-01T06:34:54;3.40;;;2.70;;
5912;SDS011;2982;42.684;23.356;2023-03-01T06:37:20;3.07;;;2.77;;
5912;SDS011;2982;42.684;23.356;2023-03-01T06:39:45;3.07;;;2.70;;
5912;SDS011;2982;42.684;23.356;2023-03-01T06:42:10;2.53;;;2.33;;
5912;SDS011;2982;42.684;23.356;2023-03-01T06:44:36;2.80;;;2.60;;
5912;SDS011;2982;42.684;23.356;2023-03-01T06:47:02;3.00;;;2.43;;
5912;SDS011;2982;42.684;23.356;2023-03-01T06:49:27;2.53;;;2.40;;
5912;SDS011;2982;42.684;23.356;2023-03-01T06:51:53;3.60;;;3.30;;
5912;SDS011;2982;42.684;23.356;2023-03-01T06:54:18;3.67;;;3.03;;
5912;SDS011;2982;42.684;23.356;2023-03-01T06:56:46;2.70;;;2.50;;
5912;SDS011;2982;42.684;23.356;2023-03-01T06:59:11;3.40;;;3.10;;
5912;SDS011;2982;42.684;23.356;2023-03-01T07:01:37;4.93;;;3.20;;
5912;SDS011;2982;42.684;23.356;2023-03-01T07:04:03;3.03;;;2.83;;
5912;SDS011;2982;42.684;23.356;2023-03-01T07:06:28;5.03;;;3.30;;
5912;SDS011;2982;42.684;23.356;2023-03-01T07:08:53;3.53;;;3.23;;
5912;SDS011;2982;42.684;23.356;2023-03-01T07:11:19;3.07;;;2.70;;
5912;SDS011;2982;42.684;23.356;2023-03-01T07:13:44;3.03;;;2.23;;
5912;SDS011;2982;42.684;23.356;2023-03-01T07:16:09;2.77;;;2.53;;
5912;SDS011;2982;42.684;23.356;2023-03-01T07:18:34;4.53;;;2.90;;
5912;SDS011;2982;42.684;23.356;2023-03-01T07:21:03;11.17;;;2.63;;
5912;SDS011;2982;42.684;23.356;2023-03-01T07:23:32;4.17;;;2.50;;
5912;SDS011;2982;42.684;23.356;2023-03-01T07:25:57;4.90;;;2.03;;
5912;SDS011;2982;42.684;23.356;2023-03-01T07:28:23;2.30;;;1.90;;
5912;SDS011;2982;42.684;23.356;2023-03-01T07:30:49;2.10;;;1.67;;
5912;SDS011;2982;42.684;23.356;2023-03-01T07:33:14;2.83;;;1.80;;
5912;SDS011;2982;42.684;23.356;2023-03-01T07:35:39;2.43;;;2.23;;
5912;SDS011;2982;42.684;23.356;2023-03-01T07:38:05;4.10;;;2.27;;
5912;SDS011;2982;42.684;23.356;2023-03-01T07:40:30;5.43;;;2.90;;
5912;SDS011;2982;42.684;23.356;2023-03-01T07:42:58;3.17;;;2.20;;
5912;SDS011;2982;42.684;23.356;2023-03-01T07:45:24;2.60;;;2.40;;
5912;SDS011;2982;42.684;23.356;2023-03-01T07:47:54;2.03;;;1.80;;
5912;SDS011;2982;42.684;23.356;2023-03-01T07:50:20;2.27;;;1.50;;
5912;SDS011;2982;42.684;23.356;2023-03-01T07:52:46;1.70;;;1.60;;
5912;SDS011;2982;42.684;23.356;2023-03-01T07:55:13;3.10;;;1.67;;
5912;SDS011;2982;42.684;23.356;2023-03-01T07:57:39;1.57;;;1.47;;
5912;SDS011;2982;42.684;23.356;2023-03-01T08:00:05;5.67;;;1.87;;
5912;SDS011;2982;42.684;23.356;2023-03-01T08:02:31;3.07;;;2.27;;
5912;SDS011;2982;42.684;23.356;2023-03-01T08:04:56;1.90;;;1.47;;
5912;SDS011;2982;42.684;23.356;2023-03-01T08:07:22;5.63;;;4.43;;
5912;SDS011;2982;42.684;23.356;2023-03-01T08:09:47;4.47;;;1.90;;
5912;SDS011;2982;42.684;23.356;2023-03-01T08:12:12;4.07;;;2.43;;
5912;SDS011;2982;42.684;23.356;2023-03-01T08:14:38;2.60;;;1.40;;
5912;SDS011;2982;42.684;23.356;2023-03-01T08:17:03;1.30;;;1.20;;
5912;SDS011;2982;42.684;23.356;2023-03-01T08:19:29;2.33;;;1.60;;
5912;SDS011;2982;42.684;23.356;2023-03-01T08:21:54;3.10;;;1.40;;
5912;SDS011;2982;42.684;23.356;2023-03-01T08:24:20;2.00;;;1.63;;
5912;SDS011;2982;42.684;23.356;2023-03-01T08:26:45;1.70;;;1.57;;
5912;SDS011;2982;42.684;23.356;2023-03-01T08:29:10;1.40;;;1.25;;
5912;SDS011;2982;42.684;23.356;2023-03-01T08:31:37;2.83;;;2.00;;
5912;SDS011;2982;42.684;23.356;2023-03-01T08:34:05;1.77;;;1.50;;
5912;SDS011;2982;42.684;23.356;2023-03-01T08:36:34;1.70;;;1.30;;
5912;SDS011;2982;42.684;23.356;2023-03-01T08:39:05;2.43;;;1.67;;
5912;SDS011;2982;42.684;23.356;2023-03-01T08:41:31;2.13;;;1.30;;
5912;SDS011;2982;42.684;23.356;2023-03-01T08:43:57;1.40;;;1.40;;
5912;SDS011;2982;42.684;23.356;2023-03-01T08:46:22;3.53;;;1.60;;
5912;SDS011;2982;42.684;23.356;2023-03-01T08:48:48;3.50;;;1.50;;
5912;SDS011;2982;42.684;23.356;2023-03-01T08:51:14;2.20;;;1.80;;
5912;SDS011;2982;42.684;23.356;2023-03-01T08:53:42;2.53;;;1.40;;
5912;SDS011;2982;42.684;23.356;2023-03-01T08:56:09;2.10;;;1.90;;
5912;SDS011;2982;42.684;23.356;2023-03-01T08:58:35;3.13;;;2.63;;
5912;SDS011;2982;42.684;23.356;2023-03-01T09:01:00;1.80;;;1.70;;
5912;SDS011;2982;42.684;23.356;2023-03-01T09:03:31;2.27;;;2.13;;
5912;SDS011;2982;42.684;23.356;2023-03-01T09:05:59;4.50;;;1.53;;
5912;SDS011;2982;42.684;23.356;2023-03-01T09:08:25;2.10;;;1.60;;
5912;SDS011;2982;42.684;23.356;2023-03-01T09:10:50;1.37;;;1.30;;
5912;SDS011;2982;42.684;23.356;2023-03-01T09:13:16;5.80;;;1.27;;
5912;SDS011;2982;42.684;23.356;2023-03-01T09:15:41;1.00;;;1.00;;
5912;SDS011;2982;42.684;23.356;2023-03-01T09:18:06;1.10;;;1.10;;
5912;SDS011;2982;42.684;23.356;2023-03-01T09:20:32;2.35;;;1.60;;
5912;SDS011;2982;42.684;23.356;2023-03-01T09:22:57;2.40;;;1.33;;
5912;SDS011;2982;42.684;23.356;2023-03-01T09:25:23;1.10;;;1.00;;
5912;SDS011;2982;42.684;23.356;2023-03-01T09:27:52;1.50;;;1.13;;
5912;SDS011;2982;42.684;23.356;2023-03-01T09:30:18;0.90;;;0.90;;
5912;SDS011;2982;42.684;23.356;2023-03-01T09:32:44;1.30;;;1.10;;
5912;SDS011;2982;42.684;23.356;2023-03-01T09:35:09;1.60;;;1.47;;
5912;SDS011;2982;42.684;23.356;2023-03-01T09:37:35;0.90;;;0.90;;
5912;SDS011;2982;42.684;23.356;2023-03-01T09:40:01;1.47;;;0.80;;
5912;SDS011;2982;42.684;23.356;2023-03-01T09:42:27;2.00;;;1.33;;
5912;SDS011;2982;42.684;23.356;2023-03-01T09:44:55;1.50;;;1.40;;
5912;SDS011;2982;42.684;23.356;2023-03-01T09:47:44;2.55;;;2.35;;
5912;SDS011;2982;42.684;23.356;2023-03-01T09:50:15;3.03;;;0.80;;
5912;SDS011;2982;42.684;23.356;2023-03-01T09:55:12;0.73;;;0.73;;
5912;SDS011;2982;42.684;23.356;2023-03-01T10:00:41;1.73;;;1.00;;
5912;SDS011;2982;42.684;23.356;2023-03-01T10:03:14;1.40;;;1.30;;
5912;SDS011;2982;42.684;23.356;2023-03-01T10:05:56;1.20;;;1.10;;
5912;SDS011;2982;42.684;23.356;2023-03-01T10:08:38;2.00;;;0.83;;
5912;SDS011;2982;42.684;23.356;2023-03-01T10:11:28;3.60;;;1.10;;
5912;SDS011;2982;42.684;23.356;2023-03-01T10:16:28;1.33;;;1.23;;
5912;SDS011;2982;42.684;23.356;2023-03-01T10:19:10;1.33;;;1.08;;
5912;SDS011;2982;42.684;23.356;2023-03-01T10:21:41;0.80;;;0.77;;
5912;SDS011;2982;42.684;23.356;2023-03-01T10:24:10;1.00;;;0.90;;
5912;SDS011;2982;42.684;23.356;2023-03-01T10:26:44;1.00;;;0.80;;
5912;SDS011;2982;42.684;23.356;2023-03-01T10:29:20;1.37;;;1.20;;
5912;SDS011;2982;42.684;23.356;2023-03-01T10:31:51;0.80;;;0.80;;
5912;SDS011;2982;42.684;23.356;2023-03-01T10:34:19;0.70;;;0.70;;
5912;SDS011;2982;42.684;23.356;2023-03-01T10:37:08;1.87;;;1.00;;
5912;SDS011;2982;42.684;23.356;2023-03-01T10:39:54;1.93;;;1.67;;
5912;SDS011;2982;42.684;23.356;2023-03-01T10:42:35;1.20;;;0.90;;
5912;SDS011;2982;42.684;23.356;2023-03-01T10:45:17;1.27;;;1.20;;
5912;SDS011;2982;42.684;23.356;2023-03-01T10:47:42;1.27;;;0.90;;
5912;SDS011;2982;42.684;23.356;2023-03-01T10:50:17;1.50;;;1.40;;
5912;SDS011;2982;42.684;23.356;2023-03-01T10:52:55;0.68;;;0.68;;
5912;SDS011;2982;42.684;23.356;2023-03-01T10:58:15;1.25;;;0.93;;
5912;SDS011;2982;42.684;23.356;2023-03-01T11:00:49;0.68;;;0.60;;
5912;SDS011;2982;42.684;23.356;2023-03-01T11:03:18;0.65;;;0.65;;
5912;SDS011;2982;42.684;23.356;2023-03-01T11:05:56;0.90;;;0.90;;
5912;SDS011;2982;42.684;23.356;2023-03-01T11:11:12;0.85;;;0.85;;
5912;SDS011;2982;42.684;23.356;2023-03-01T11:13:55;3.33;;;1.30;;
5912;SDS011;2982;42.684;23.356;2023-03-01T11:16:33;1.15;;;1.02;;
5912;SDS011;2982;42.684;23.356;2023-03-01T11:21:34;1.10;;;1.10;;
5912;SDS011;2982;42.684;23.356;2023-03-01T11:24:02;0.88;;;0.88;;
5912;SDS011;2982;42.684;23.356;2023-03-01T11:26:34;0.90;;;0.88;;
5912;SDS011;2982;42.684;23.356;2023-03-01T11:29:05;0.97;;;0.97;;
5912;SDS011;2982;42.684;23.356;2023-03-01T11:31:37;2.13;;;1.20;;
5912;SDS011;2982;42.684;23.356;2023-03-01T11:34:09;3.05;;;1.20;;
5912;SDS011;2982;42.684;23.356;2023-03-01T11:36:52;1.85;;;0.93;;
5912;SDS011;2982;42.684;23.356;2023-03-01T11:39:27;1.52;;;0.82;;
5912;SDS011;2982;42.684;23.356;2023-03-01T11:42:05;1.10;;;1.00;;
5912;SDS011;2982;42.684;23.356;2023-03-01T11:44:36;0.70;;;0.70;;
5912;SDS011;2982;42.684;23.356;2023-03-01T11:50:47;1.60;;;1.50;;
5912;SDS011;2982;42.684;23.356;2023-03-01T11:53:23;3.22;;;1.60;;
5912;SDS011;2982;42.684;23.356;2023-03-01T11:56:31;2.45;;;1.65;;
5912;SDS011;2982;42.684;23.356;2023-03-01T12:04:54;1.27;;;1.20;;
5912;SDS011;2982;42.684;23.356;2023-03-01T12:07:56;4.03;;;1.25;;
5912;SDS011;2982;42.684;23.356;2023-03-01T12:19:19;2.70;;;2.50;;
5912;SDS011;2982;42.684;23.356;2023-03-01T12:22:02;4.07;;;2.65;;
5912;SDS011;2982;42.684;23.356;2023-03-01T12:35:38;4.28;;;1.92;;
5912;SDS011;2982;42.684;23.356;2023-03-01T12:49:24;2.28;;;2.17;;
5912;SDS011;2982;42.684;23.356;2023-03-01T12:57:47;5.97;;;1.55;;
5912;SDS011;2982;42.684;23.356;2023-03-01T13:00:24;5.57;;;2.20;;
5912;SDS011;2982;42.684;23.356;2023-03-01T13:02:58;2.42;;;2.22;;
5912;SDS011;2982;42.684;23.356;2023-03-01T13:06:00;2.22;;;2.08;;
5912;SDS011;2982;42.684;23.356;2023-03-01T13:08:37;1.77;;;1.67;;
5912;SDS011;2982;42.684;23.356;2023-03-01T13:11:14;2.00;;;1.57;;
5912;SDS011;2982;42.684;23.356;2023-03-01T13:13:43;2.38;;;1.38;;
5912;SDS011;2982;42.684;23.356;2023-03-01T13:19:05;1.95;;;1.75;;
5912;SDS011;2982;42.684;23.356;2023-03-01T13:21:34;2.53;;;1.98;;
5912;SDS011;2982;42.684;23.356;2023-03-01T13:23:59;1.60;;;1.50;;
5912;SDS011;2982;42.684;23.356;2023-03-01T13:26:24;1.70;;;1.38;;
5912;SDS011;2982;42.684;23.356;2023-03-01T13:28:51;1.73;;;1.60;;
5912;SDS011;2982;42.684;23.356;2023-03-01T13:33:46;5.70;;;1.70;;
5912;SDS011;2982;42.684;23.356;2023-03-01T13:46:48;3.50;;;1.73;;
5912;SDS011;2982;42.684;23.356;2023-03-01T13:49:16;1.80;;;1.70;;
5912;SDS011;2982;42.684;23.356;2023-03-01T13:51:46;4.68;;;1.88;;
5912;SDS011;2982;42.684;23.356;2023-03-01T13:54:12;3.72;;;1.80;;
5912;SDS011;2982;42.684;23.356;2023-03-01T13:56:40;1.92;;;1.80;;
5912;SDS011;2982;42.684;23.356;2023-03-01T13:59:17;2.53;;;1.50;;
5912;SDS011;2982;42.684;23.356;2023-03-01T14:01:44;3.13;;;1.73;;
5912;SDS011;2982;42.684;23.356;2023-03-01T14:06:51;1.67;;;1.52;;
5912;SDS011;2982;42.684;23.356;2023-03-01T14:09:21;2.35;;;2.00;;
5912;SDS011;2982;42.684;23.356;2023-03-01T14:22:56;3.78;;;2.20;;
5912;SDS011;2982;42.684;23.356;2023-03-01T14:27:54;2.45;;;2.05;;
5912;SDS011;2982;42.684;23.356;2023-03-01T14:30:24;4.20;;;1.40;;
5912;SDS011;2982;42.684;23.356;2023-03-01T14:35:58;3.70;;;1.43;;
5912;SDS011;2982;42.684;23.356;2023-03-01T14:38:34;1.37;;;1.23;;
5912;SDS011;2982;42.684;23.356;2023-03-01T14:41:02;1.53;;;1.43;;
5912;SDS011;2982;42.684;23.356;2023-03-01T14:43:31;3.10;;;1.50;;
5912;SDS011;2982;42.684;23.356;2023-03-01T14:45:57;3.57;;;2.10;;
5912;SDS011;2982;42.684;23.356;2023-03-01T14:48:23;2.00;;;1.30;;
5912;SDS011;2982;42.684;23.356;2023-03-01T14:50:49;3.00;;;2.17;;
5912;SDS011;2982;42.684;23.356;2023-03-01T14:53:25;1.60;;;1.50;;
5912;SDS011;2982;42.684;23.356;2023-03-01T14:55:59;3.37;;;1.70;;
5912;SDS011;2982;42.684;23.356;2023-03-01T14:58:26;2.20;;;2.00;;
5912;SDS011;2982;42.684;23.356;2023-03-01T15:00:55;2.90;;;2.30;;
5912;SDS011;2982;42.684;23.356;2023-03-01T15:05:50;4.47;;;2.23;;
5912;SDS011;2982;42.684;23.356;2023-03-01T15:08:18;5.10;;;2.10;;
5912;SDS011;2982;42.684;23.356;2023-03-01T15:11:46;4.20;;;1.80;;
5912;SDS011;2982;42.684;23.356;2023-03-01T15:13:53;1.97;;;1.80;;
5912;SDS011;2982;42.684;23.356;2023-03-01T15:16:19;4.03;;;2.30;;
5912;SDS011;2982;42.684;23.356;2023-03-01T15:18:47;2.10;;;1.60;;
5912;SDS011;2982;42.684;23.356;2023-03-01T15:21:16;1.93;;;1.73;;
5912;SDS011;2982;42.684;23.356;2023-03-01T15:23:47;2.50;;;1.80;;
5912;SDS011;2982;42.684;23.356;2023-03-01T15:26:22;4.00;;;2.10;;
5912;SDS011;2982;42.684;23.356;2023-03-01T15:28:50;2.73;;;1.60;;
5912;SDS011;2982;42.684;23.356;2023-03-01T15:31:20;2.53;;;2.00;;
5912;SDS011;2982;42.684;23.356;2023-03-01T15:33:48;10.00;;;2.23;;
5912;SDS011;2982;42.684;23.356;2023-03-01T15:39:02;4.03;;;2.27;;
5912;SDS011;2982;42.684;23.356;2023-03-01T15:41:32;4.50;;;2.23;;
5912;SDS011;2982;42.684;23.356;2023-03-01T15:44:14;2.80;;;2.10;;
5912;SDS011;2982;42.684;23.356;2023-03-01T15:46:44;3.63;;;2.17;;
5912;SDS011;2982;42.684;23.356;2023-03-01T15:52:01;5.10;;;1.80;;
5912;SDS011;2982;42.684;23.356;2023-03-01T15:54:28;2.60;;;1.40;;
5912;SDS011;2982;42.684;23.356;2023-03-01T15:56:53;5.33;;;1.60;;
5912;SDS011;2982;42.684;23.356;2023-03-01T15:59:19;1.93;;;1.60;;
5912;SDS011;2982;42.684;23.356;2023-03-01T16:01:44;3.33;;;2.10;;
5912;SDS011;2982;42.684;23.356;2023-03-01T16:04:15;2.30;;;1.97;;
5912;SDS011;2982;42.684;23.356;2023-03-01T16:06:43;4.50;;;1.43;;
5912;SDS011;2982;42.684;23.356;2023-03-01T16:09:08;3.53;;;1.90;;
5912;SDS011;2982;42.684;23.356;2023-03-01T16:11:34;6.60;;;2.07;;
5912;SDS011;2982;42.684;23.356;2023-03-01T16:14:00;2.60;;;2.03;;
5912;SDS011;2982;42.684;23.356;2023-03-01T16:16:25;2.03;;;1.83;;
5912;SDS011;2982;42.684;23.356;2023-03-01T16:18:50;3.63;;;2.93;;
5912;SDS011;2982;42.684;23.356;2023-03-01T16:21:18;3.27;;;2.13;;
5912;SDS011;2982;42.684;23.356;2023-03-01T16:23:46;5.33;;;2.50;;
5912;SDS011;2982;42.684;23.356;2023-03-01T16:26:11;3.00;;;2.70;;
5912;SDS011;2982;42.684;23.356;2023-03-01T16:28:37;3.03;;;2.80;;
5912;SDS011;2982;42.684;23.356;2023-03-01T16:31:02;2.83;;;2.53;;
5912;SDS011;2982;42.684;23.356;2023-03-01T16:33:28;3.67;;;2.87;;
5912;SDS011;2982;42.684;23.356;2023-03-01T16:35:53;4.77;;;3.17;;
5912;SDS011;2982;42.684;23.356;2023-03-01T16:38:18;4.17;;;3.13;;
5912;SDS011;2982;42.684;23.356;2023-03-01T16:40:47;5.07;;;2.83;;
5912;SDS011;2982;42.684;23.356;2023-03-01T16:43:15;5.03;;;2.90;;
5912;SDS011;2982;42.684;23.356;2023-03-01T16:45:40;5.00;;;3.50;;
5912;SDS011;2982;42.684;23.356;2023-03-01T16:48:06;2.80;;;2.50;;
5912;SDS011;2982;42.684;23.356;2023-03-01T16:50:31;3.37;;;2.40;;
5912;SDS011;2982;42.684;23.356;2023-03-01T16:52:57;3.53;;;2.80;;
5912;SDS011;2982;42.684;23.356;2023-03-01T16:55:22;3.40;;;3.07;;
5912;SDS011;2982;42.684;23.356;2023-03-01T16:57:47;7.87;;;3.50;;
5912;SDS011;2982;42.684;23.356;2023-03-01T17:00:13;3.33;;;3.07;;
5912;SDS011;2982;42.684;23.356;2023-03-01T17:02:39;5.47;;;3.60;;
5912;SDS011;2982;42.684;23.356;2023-03-01T17:05:05;3.83;;;3.43;;
5912;SDS011;2982;42.684;23.356;2023-03-01T17:07:31;4.00;;;3.50;;
5912;SDS011;2982;42.684;23.356;2023-03-01T17:09:57;5.03;;;4.20;;